createdAt,value
2022-09-30T00:00:31.256Z,9.35
2022-09-30T00:01:54.800Z,9.32
2022-09-30T00:02:58.008Z,9.31
2022-09-30T00:04:01.608Z,9.31
2022-09-30T00:05:05.085Z,9.31
2022-09-30T00:06:09.191Z,9.33
2022-09-30T00:07:12.454Z,9.34
2022-09-30T00:08:16.159Z,9.34
2022-09-30T00:09:19.431Z,9.35
2022-09-30T00:10:22.771Z,9.37
2022-09-30T00:11:28.836Z,9.37
2022-09-30T00:12:32.094Z,9.39
2022-09-30T00:13:38.502Z,9.39
2022-09-30T00:14:41.780Z,9.38
2022-09-30T00:15:47.018Z,9.37
2022-09-30T00:16:50.683Z,9.37
2022-09-30T00:17:53.769Z,9.34
2022-09-30T00:18:57.774Z,9.35
2022-09-30T00:20:01.005Z,9.36
2022-09-30T00:21:04.493Z,9.36
2022-09-30T00:22:07.594Z,9.37
2022-09-30T00:23:10.673Z,9.37
2022-09-30T00:24:13.894Z,9.38
2022-09-30T00:25:17.069Z,9.39
2022-09-30T00:26:22.072Z,9.41
2022-09-30T00:27:25.334Z,9.42
2022-09-30T00:28:29.397Z,9.44
2022-09-30T00:29:32.513Z,9.43
2022-09-30T00:30:36.062Z,9.43
2022-09-30T00:31:39.445Z,9.42
2022-09-30T00:32:42.587Z,9.40
2022-09-30T00:34:06.214Z,9.43
2022-09-30T00:35:09.415Z,9.38
2022-09-30T00:36:13.544Z,9.43
2022-09-30T00:37:17.026Z,9.43
2022-09-30T00:38:20.246Z,9.43
2022-09-30T00:39:27.486Z,9.42
2022-09-30T00:40:31.453Z,9.40
2022-09-30T00:41:37.749Z,9.41
2022-09-30T00:42:43.398Z,9.41
2022-09-30T00:43:53.537Z,9.39
2022-09-30T00:45:03.670Z,9.39
2022-09-30T00:46:08.969Z,9.39
2022-09-30T00:47:17.950Z,9.39
2022-09-30T00:48:32.590Z,9.39
2022-09-30T00:49:36.032Z,9.38
2022-09-30T00:50:46.437Z,9.36
2022-09-30T00:51:52.348Z,9.36
2022-09-30T00:53:04.966Z,9.35
2022-09-30T00:54:10.941Z,9.35
2022-09-30T00:55:29.959Z,9.35
2022-09-30T00:56:37.591Z,9.35
2022-09-30T00:57:41.114Z,9.36
2022-09-30T00:58:50.932Z,9.35
2022-09-30T00:59:54.338Z,9.35
2022-09-30T01:00:59.700Z,9.34
2022-09-30T01:02:05.933Z,9.34
2022-09-30T01:03:09.216Z,9.31
2022-09-30T01:04:12.339Z,9.34
2022-09-30T01:05:15.729Z,9.32
2022-09-30T01:06:19.554Z,9.30
2022-09-30T01:07:23.920Z,9.30
2022-09-30T01:08:27.824Z,9.30
2022-09-30T01:09:32.238Z,9.30
2022-09-30T01:10:35.401Z,9.30
2022-09-30T01:11:38.971Z,9.29
2022-09-30T01:12:42.094Z,9.29
2022-09-30T01:13:48.760Z,9.28
2022-09-30T01:14:53.973Z,9.28
2022-09-30T01:16:16.360Z,9.26
2022-09-30T01:17:31.687Z,9.25
2022-09-30T01:18:40.914Z,9.26
2022-09-30T01:19:58.498Z,9.25
2022-09-30T01:21:11.334Z,9.23
2022-09-30T01:22:20.163Z,9.21
2022-09-30T01:23:26.399Z,9.21
2022-09-30T01:24:38.497Z,9.21
2022-09-30T01:25:41.561Z,9.20
2022-09-30T01:26:49.869Z,9.17
2022-09-30T01:28:02.993Z,9.16
2022-09-30T01:29:06.667Z,9.16
2022-09-30T01:30:09.969Z,9.16
2022-09-30T01:31:13.134Z,9.15
2022-09-30T01:32:19.384Z,9.15
2022-09-30T01:33:22.441Z,9.14
2022-09-30T01:34:37.746Z,9.11
2022-09-30T01:35:40.830Z,9.11
2022-09-30T01:36:49.851Z,9.11
2022-09-30T01:37:53.588Z,9.11
2022-09-30T01:39:07.534Z,9.09
2022-09-30T01:40:23.989Z,9.09
2022-09-30T01:41:57.269Z,9.08
2022-09-30T01:43:26.743Z,9.08
2022-09-30T01:44:30.297Z,9.08
2022-09-30T01:45:33.555Z,9.07
2022-09-30T01:46:49.857Z,9.07
2022-09-30T01:48:13.364Z,9.06
2022-09-30T01:49:34.544Z,9.07
2022-09-30T01:50:43.819Z,9.08
2022-09-30T01:51:56.011Z,9.07
2022-09-30T01:53:06.524Z,9.07
2022-09-30T01:54:15.651Z,9.06
2022-09-30T01:55:31.425Z,9.07
2022-09-30T01:56:42.939Z,9.07
2022-09-30T01:57:50.445Z,9.07
2022-09-30T01:59:07.364Z,9.04
2022-09-30T02:00:12.692Z,8.98
2022-09-30T02:01:22.810Z,9.02
2022-09-30T02:02:27.812Z,9.04
2022-09-30T02:03:39.537Z,9.03
2022-09-30T02:04:45.701Z,9.03
2022-09-30T02:05:53.857Z,9.03
2022-09-30T02:07:01.204Z,9.03
2022-09-30T02:08:06.298Z,9.02
2022-09-30T02:09:17.016Z,9.00
2022-09-30T02:10:23.086Z,9.00
2022-09-30T02:11:28.704Z,8.97
2022-09-30T02:12:34.194Z,8.99
2022-09-30T02:13:42.644Z,8.97
2022-09-30T02:14:56.214Z,8.97
2022-09-30T02:16:01.574Z,8.95
2022-09-30T02:17:08.653Z,8.95
2022-09-30T02:18:19.985Z,8.94
2022-09-30T02:19:28.438Z,8.94
2022-09-30T02:20:36.346Z,8.93
2022-09-30T02:21:41.063Z,8.93
2022-09-30T02:22:47.128Z,8.94
2022-09-30T02:23:53.387Z,8.94
2022-09-30T02:24:59.773Z,8.86
2022-09-30T02:26:07.406Z,8.91
2022-09-30T02:27:15.882Z,8.91
2022-09-30T02:28:27.373Z,8.91
2022-09-30T02:29:33.367Z,8.90
2022-09-30T02:30:39.639Z,8.89
2022-09-30T02:31:44.185Z,8.89
2022-09-30T02:32:57.648Z,8.87
2022-09-30T02:34:03.045Z,8.88
2022-09-30T02:35:09.543Z,8.90
2022-09-30T02:36:26.720Z,8.92
2022-09-30T02:37:34.830Z,8.92
2022-09-30T02:38:40.909Z,8.93
2022-09-30T02:39:48.751Z,8.92
2022-09-30T02:41:12.269Z,8.91
2022-09-30T02:42:21.589Z,8.90
2022-09-30T02:43:25.309Z,8.88
2022-09-30T02:44:28.720Z,8.86
2022-09-30T02:45:33.236Z,8.82
2022-09-30T02:46:45.686Z,8.82
2022-09-30T02:47:54.904Z,8.82
2022-09-30T02:49:06.803Z,8.82
2022-09-30T02:50:19.210Z,8.79
2022-09-30T02:51:38.955Z,8.82
2022-09-30T02:52:44.577Z,8.82
2022-09-30T02:54:02.374Z,8.83
2022-09-30T02:55:14.453Z,8.84
2022-09-30T02:56:23.050Z,8.85
2022-09-30T02:57:36.774Z,8.86
2022-09-30T02:58:40.631Z,8.85
2022-09-30T02:59:43.819Z,8.85
2022-09-30T03:00:47.854Z,8.86
2022-09-30T03:01:51.318Z,8.87
2022-09-30T03:02:56.438Z,8.87
2022-09-30T03:04:02.888Z,8.87
2022-09-30T03:05:06.173Z,8.88
2022-09-30T03:06:09.926Z,8.89
2022-09-30T03:07:13.363Z,8.89
2022-09-30T03:08:16.831Z,8.90
2022-09-30T03:09:24.819Z,8.91
2022-09-30T03:10:32.363Z,8.90
2022-09-30T03:11:36.291Z,8.90
2022-09-30T03:12:46.923Z,8.90
2022-09-30T03:13:50.222Z,8.91
2022-09-30T03:15:10.008Z,8.91
2022-09-30T03:16:32.280Z,8.89
2022-09-30T03:17:38.223Z,8.89
2022-09-30T03:18:50.384Z,8.90
2022-09-30T03:20:02.863Z,8.90
2022-09-30T03:21:17.117Z,8.91
2022-09-30T03:22:28.543Z,8.92
2022-09-30T03:23:40.080Z,8.91
2022-09-30T03:24:43.391Z,8.92
2022-09-30T03:25:56.525Z,8.92
2022-09-30T03:27:17.424Z,8.91
2022-09-30T03:28:20.790Z,8.92
2022-09-30T03:29:34.974Z,8.91
2022-09-30T03:30:48.193Z,8.91
2022-09-30T03:32:00.380Z,8.91
2022-09-30T03:33:21.809Z,8.91
2022-09-30T03:34:29.594Z,8.91
2022-09-30T03:36:08.745Z,8.92
2022-09-30T03:37:34.939Z,8.91
2022-09-30T03:38:40.978Z,8.89
2022-09-30T03:39:49.885Z,8.85
2022-09-30T03:41:13.184Z,8.84
2022-09-30T03:42:23.040Z,8.82
2022-09-30T03:43:38.249Z,8.82
2022-09-30T03:44:45.788Z,8.82
2022-09-30T03:45:54.925Z,8.82
2022-09-30T03:47:01.580Z,8.81
2022-09-30T03:48:06.974Z,8.82
2022-09-30T03:49:13.616Z,8.83
2022-09-30T03:50:19.798Z,8.84
2022-09-30T03:51:25.270Z,8.84
2022-09-30T03:52:30.737Z,8.84
2022-09-30T03:53:46.821Z,8.85
2022-09-30T03:54:57.018Z,8.86
2022-09-30T03:56:00.523Z,8.87
2022-09-30T03:57:05.597Z,8.88
2022-09-30T03:58:09.318Z,8.89
2022-09-30T03:59:15.304Z,8.90
2022-09-30T04:00:19.220Z,8.88
2022-09-30T04:01:23.491Z,8.89
2022-09-30T04:02:27.389Z,8.89
2022-09-30T04:03:30.375Z,8.86
2022-09-30T04:04:33.627Z,8.85
2022-09-30T04:05:36.701Z,8.85
2022-09-30T04:06:39.789Z,8.85
2022-09-30T04:07:42.898Z,8.85
2022-09-30T04:08:45.938Z,8.85
2022-09-30T04:09:49.042Z,8.83
2022-09-30T04:10:52.074Z,8.83
2022-09-30T04:11:57.703Z,8.83
2022-09-30T04:13:00.830Z,8.83
2022-09-30T04:14:11.976Z,8.84
2022-09-30T04:15:15.159Z,8.83
2022-09-30T04:16:21.503Z,8.84
2022-09-30T04:17:24.704Z,8.83
2022-09-30T04:18:30.680Z,8.83
2022-09-30T04:19:38.465Z,8.83
2022-09-30T04:20:45.863Z,8.82
2022-09-30T04:21:54.204Z,8.82
2022-09-30T04:23:10.232Z,8.82
2022-09-30T04:24:13.479Z,8.83
2022-09-30T04:25:16.880Z,8.75
2022-09-30T04:26:20.259Z,8.84
2022-09-30T04:27:23.553Z,8.83
2022-09-30T04:28:26.918Z,8.80
2022-09-30T04:29:33.233Z,8.82
2022-09-30T04:30:37.908Z,8.81
2022-09-30T04:31:41.060Z,8.79
2022-09-30T04:32:47.559Z,8.80
2022-09-30T04:33:51.147Z,8.80
2022-09-30T04:34:57.134Z,8.82
2022-09-30T04:36:00.574Z,8.80
2022-09-30T04:37:06.332Z,8.79
2022-09-30T04:38:13.113Z,8.80
2022-09-30T04:39:16.199Z,8.79
2022-09-30T04:40:19.202Z,8.79
2022-09-30T04:41:22.294Z,8.79
2022-09-30T04:42:28.271Z,8.78
2022-09-30T04:43:31.471Z,8.81
2022-09-30T04:44:35.639Z,8.82
2022-09-30T04:45:42.685Z,8.81
2022-09-30T04:46:45.925Z,8.84
2022-09-30T04:47:49.159Z,8.82
2022-09-30T04:48:52.341Z,8.84
2022-09-30T04:49:55.579Z,8.83
2022-09-30T04:50:59.794Z,8.83
2022-09-30T04:52:02.838Z,8.82
2022-09-30T04:53:06.649Z,8.83
2022-09-30T04:54:12.696Z,8.83
2022-09-30T04:55:15.784Z,8.84
2022-09-30T04:56:19.445Z,8.84
2022-09-30T04:57:22.493Z,8.84
2022-09-30T04:58:25.508Z,8.82
2022-09-30T04:59:28.948Z,8.80
2022-09-30T05:00:32.037Z,8.80
2022-09-30T05:01:35.097Z,8.81
2022-09-30T05:02:38.121Z,8.81
2022-09-30T05:03:44.303Z,8.81
2022-09-30T05:04:49.916Z,8.81
2022-09-30T05:05:53.088Z,8.83
2022-09-30T05:06:56.264Z,8.84
2022-09-30T05:08:00.552Z,8.84
2022-09-30T05:09:03.861Z,8.85
2022-09-30T05:10:08.376Z,8.85
2022-09-30T05:11:16.128Z,8.86
2022-09-30T05:12:19.208Z,8.85
2022-09-30T05:13:22.266Z,8.80
2022-09-30T05:14:25.343Z,8.85
2022-09-30T05:15:28.482Z,8.85
2022-09-30T05:16:31.614Z,8.84
2022-09-30T05:17:34.898Z,8.84
2022-09-30T05:18:39.603Z,8.83
2022-09-30T05:19:42.579Z,8.83
2022-09-30T05:20:48.275Z,8.81
2022-09-30T05:21:52.749Z,8.82
2022-09-30T05:22:56.782Z,8.81
2022-09-30T05:23:59.880Z,8.80
2022-09-30T05:25:04.822Z,8.79
2022-09-30T05:26:11.951Z,8.75
2022-09-30T05:27:16.399Z,8.78
2022-09-30T05:28:19.869Z,8.77
2022-09-30T05:29:23.100Z,8.78
2022-09-30T05:30:26.263Z,8.78
2022-09-30T05:31:29.415Z,8.77
2022-09-30T05:32:32.609Z,8.74
2022-09-30T05:33:36.177Z,8.77
2022-09-30T05:34:39.435Z,8.76
2022-09-30T05:35:43.091Z,8.76
2022-09-30T05:36:46.188Z,8.75
2022-09-30T05:37:49.346Z,8.75
2022-09-30T05:38:52.993Z,8.77
2022-09-30T05:39:56.353Z,8.78
2022-09-30T05:40:59.558Z,8.78
2022-09-30T05:42:02.683Z,8.78
2022-09-30T05:43:06.454Z,8.78
2022-09-30T05:44:09.832Z,8.78
2022-09-30T05:45:13.350Z,8.78
2022-09-30T05:46:17.640Z,8.78
2022-09-30T05:47:24.235Z,8.77
2022-09-30T05:48:30.400Z,8.77
2022-09-30T05:49:35.064Z,8.76
2022-09-30T05:50:38.718Z,8.75
2022-09-30T05:51:42.018Z,8.75
2022-09-30T05:52:45.138Z,8.75
2022-09-30T05:53:48.472Z,8.75
2022-09-30T05:54:51.765Z,8.74
2022-09-30T05:56:02.144Z,8.76
2022-09-30T05:57:08.040Z,8.75
2022-09-30T05:58:11.188Z,8.75
2022-09-30T05:59:14.435Z,8.75
2022-09-30T06:00:17.759Z,8.74
2022-09-30T06:01:20.879Z,8.75
2022-09-30T06:02:24.583Z,8.75
2022-09-30T06:03:27.729Z,8.74
2022-09-30T06:04:30.882Z,8.74
2022-09-30T06:05:34.074Z,8.72
2022-09-30T06:06:37.217Z,8.73
2022-09-30T06:07:40.319Z,8.71
2022-09-30T06:08:44.003Z,8.74
2022-09-30T06:09:47.107Z,8.73
2022-09-30T06:10:50.443Z,8.74
2022-09-30T06:11:56.193Z,8.74
2022-09-30T06:12:59.363Z,8.73
2022-09-30T06:14:02.969Z,8.75
2022-09-30T06:15:06.742Z,8.75
2022-09-30T06:16:10.937Z,8.71
2022-09-30T06:17:14.652Z,8.78
2022-09-30T06:18:17.944Z,8.78
2022-09-30T06:19:21.859Z,8.79
2022-09-30T06:20:25.455Z,8.80
2022-09-30T06:21:29.297Z,8.79
2022-09-30T06:22:36.127Z,8.83
2022-09-30T06:23:39.889Z,8.83
2022-09-30T06:24:43.144Z,8.85
2022-09-30T06:25:47.020Z,8.87
2022-09-30T06:26:50.450Z,8.89
2022-09-30T06:27:53.458Z,8.91
2022-09-30T06:28:58.704Z,8.92
2022-09-30T06:30:01.891Z,8.95
2022-09-30T06:31:05.434Z,8.98
2022-09-30T06:32:08.523Z,8.98
2022-09-30T06:33:12.091Z,9.02
2022-09-30T06:34:15.179Z,9.05
2022-09-30T06:35:19.683Z,9.07
2022-09-30T06:36:22.822Z,9.11
2022-09-30T06:37:25.864Z,9.14
2022-09-30T06:38:29.152Z,9.17
2022-09-30T06:39:32.245Z,9.20
2022-09-30T06:40:35.443Z,9.21
2022-09-30T06:41:43.689Z,9.24
2022-09-30T06:42:50.161Z,9.28
2022-09-30T06:43:57.181Z,9.32
2022-09-30T06:45:00.800Z,9.36
2022-09-30T06:46:13.958Z,9.41
2022-09-30T06:47:25.172Z,9.47
2022-09-30T06:48:37.678Z,9.52
2022-09-30T06:49:48.967Z,9.56
2022-09-30T06:51:01.742Z,9.57
2022-09-30T06:52:05.214Z,9.60
2022-09-30T06:53:09.023Z,9.61
2022-09-30T06:54:12.533Z,9.62
2022-09-30T06:55:15.615Z,9.62
2022-09-30T06:56:19.536Z,9.63
2022-09-30T06:57:25.025Z,9.64
2022-09-30T06:58:28.318Z,9.66
2022-09-30T06:59:31.348Z,9.68
2022-09-30T07:00:34.571Z,9.69
2022-09-30T07:01:37.680Z,9.70
2022-09-30T07:02:41.215Z,9.72
2022-09-30T07:03:45.466Z,9.73
2022-09-30T07:04:51.382Z,9.73
2022-09-30T07:05:57.454Z,9.74
2022-09-30T07:07:00.644Z,9.75
2022-09-30T07:08:04.454Z,9.73
2022-09-30T07:09:08.001Z,9.73
2022-09-30T07:10:11.264Z,9.73
2022-09-30T07:11:17.405Z,9.73
2022-09-30T07:12:20.467Z,9.74
2022-09-30T07:13:25.962Z,9.73
2022-09-30T07:14:30.428Z,9.72
2022-09-30T07:15:33.524Z,9.74
2022-09-30T07:16:36.971Z,9.75
2022-09-30T07:17:40.452Z,9.76
2022-09-30T07:18:45.248Z,9.79
2022-09-30T07:19:48.438Z,9.79
2022-09-30T07:20:52.550Z,9.81
2022-09-30T07:21:55.633Z,9.84
2022-09-30T07:22:59.009Z,9.81
2022-09-30T07:24:02.241Z,9.88
2022-09-30T07:25:07.217Z,9.90
2022-09-30T07:26:10.290Z,9.93
2022-09-30T07:27:13.860Z,9.99
2022-09-30T07:28:17.345Z,10.01
2022-09-30T07:29:20.544Z,10.03
2022-09-30T07:30:27.290Z,10.06
2022-09-30T07:31:33.666Z,10.07
2022-09-30T07:32:37.994Z,10.12
2022-09-30T07:33:44.356Z,10.15
2022-09-30T07:34:48.165Z,10.19
2022-09-30T07:35:52.049Z,10.22
2022-09-30T07:36:55.101Z,10.23
2022-09-30T07:38:01.405Z,10.27
2022-09-30T07:39:06.684Z,10.29
2022-09-30T07:40:10.559Z,10.34
2022-09-30T07:41:15.311Z,10.37
2022-09-30T07:42:23.046Z,10.40
2022-09-30T07:43:34.980Z,10.42
2022-09-30T07:44:43.815Z,10.45
2022-09-30T07:45:47.392Z,10.48
2022-09-30T07:46:50.723Z,10.52
2022-09-30T07:47:54.087Z,10.49
2022-09-30T07:49:00.851Z,10.58
2022-09-30T07:50:04.339Z,10.61
2022-09-30T07:51:07.344Z,10.64
2022-09-30T07:52:11.726Z,10.65
2022-09-30T07:53:14.924Z,10.61
2022-09-30T07:54:19.968Z,10.58
2022-09-30T07:55:23.001Z,10.58
2022-09-30T07:56:26.597Z,10.56
2022-09-30T07:57:29.615Z,10.56
2022-09-30T07:58:32.864Z,10.56
2022-09-30T07:59:37.569Z,10.57
2022-09-30T08:00:43.077Z,10.59
2022-09-30T08:01:49.475Z,10.58
2022-09-30T08:02:53.184Z,10.56
2022-09-30T08:04:00.615Z,10.54
2022-09-30T08:05:04.043Z,10.55
2022-09-30T08:06:08.560Z,10.57
2022-09-30T08:07:12.793Z,10.58
2022-09-30T08:08:16.775Z,10.60
2022-09-30T08:09:21.286Z,10.64
2022-09-30T08:10:24.550Z,10.68
2022-09-30T08:11:27.680Z,10.73
2022-09-30T08:12:30.710Z,10.77
2022-09-30T08:13:33.805Z,10.81
2022-09-30T08:14:36.856Z,10.83
2022-09-30T08:15:41.417Z,10.85
2022-09-30T08:16:44.596Z,10.85
2022-09-30T08:17:47.705Z,10.87
2022-09-30T08:18:55.100Z,10.85
2022-09-30T08:19:58.272Z,10.81
2022-09-30T08:21:05.428Z,10.79
2022-09-30T08:22:17.570Z,10.81
2022-09-30T08:23:21.489Z,10.86
2022-09-30T08:24:26.145Z,10.88
2022-09-30T08:25:29.550Z,10.88
2022-09-30T08:26:32.726Z,10.90
2022-09-30T08:27:36.378Z,10.93
2022-09-30T08:28:39.870Z,10.95
2022-09-30T08:29:54.527Z,10.96
2022-09-30T08:31:12.984Z,11.01
2022-09-30T08:32:18.095Z,11.07
2022-09-30T08:33:21.317Z,11.13
2022-09-30T08:34:24.705Z,11.17
2022-09-30T08:35:27.917Z,11.22
2022-09-30T08:36:31.045Z,11.25
2022-09-30T08:37:35.492Z,11.26
2022-09-30T08:38:38.715Z,11.29
2022-09-30T08:39:43.622Z,11.31
2022-09-30T08:40:57.853Z,11.33
2022-09-30T08:42:13.745Z,11.37
2022-09-30T08:43:39.117Z,11.36
2022-09-30T08:44:49.662Z,11.35
2022-09-30T08:46:01.591Z,11.33
2022-09-30T08:47:23.338Z,11.31
2022-09-30T08:48:26.274Z,11.32
2022-09-30T08:49:29.475Z,11.34
2022-09-30T08:50:46.123Z,11.36
2022-09-30T08:51:50.591Z,11.35
2022-09-30T08:52:57.760Z,11.36
2022-09-30T08:54:02.817Z,11.40
2022-09-30T08:55:06.564Z,11.39
2022-09-30T08:56:12.280Z,11.40
2022-09-30T08:57:15.289Z,11.43
2022-09-30T08:58:18.297Z,11.45
2022-09-30T08:59:37.103Z,11.47
2022-09-30T09:00:40.707Z,11.48
2022-09-30T09:01:46.543Z,11.48
2022-09-30T09:02:52.006Z,11.46
2022-09-30T09:03:57.229Z,11.46
2022-09-30T09:05:04.669Z,11.50
2022-09-30T09:06:11.668Z,11.50
2022-09-30T09:07:33.231Z,11.50
2022-09-30T09:08:55.331Z,11.50
2022-09-30T09:10:24.908Z,11.51
2022-09-30T09:11:28.814Z,11.47
2022-09-30T09:12:50.571Z,11.45
2022-09-30T09:14:16.222Z,11.44
2022-09-30T09:15:30.028Z,11.44
2022-09-30T09:16:40.822Z,11.37
2022-09-30T09:18:22.583Z,11.42
2022-09-30T09:19:32.313Z,11.36
2022-09-30T09:20:41.571Z,11.36
2022-09-30T09:21:52.015Z,11.35
2022-09-30T09:22:56.389Z,11.39
2022-09-30T09:24:05.142Z,11.39
2022-09-30T09:25:12.743Z,11.39
2022-09-30T09:26:16.349Z,11.41
2022-09-30T09:27:21.844Z,11.43
2022-09-30T09:28:37.213Z,11.41
2022-09-30T09:29:49.177Z,11.38
2022-09-30T09:30:57.501Z,11.41
2022-09-30T09:32:02.513Z,11.49
2022-09-30T09:33:26.509Z,11.57
2022-09-30T09:34:30.212Z,11.68
2022-09-30T09:36:02.810Z,11.73
2022-09-30T09:37:46.513Z,11.76
2022-09-30T09:38:58.963Z,11.81
2022-09-30T09:40:10.283Z,11.87
2022-09-30T09:41:13.377Z,11.89
2022-09-30T09:42:34.265Z,11.91
2022-09-30T09:43:40.966Z,11.88
2022-09-30T09:44:48.613Z,11.89
2022-09-30T09:45:58.714Z,11.92
2022-09-30T09:47:05.833Z,11.97
2022-09-30T09:48:09.726Z,12.00
2022-09-30T09:49:21.099Z,12.03
2022-09-30T09:50:28.480Z,12.04
2022-09-30T09:51:34.790Z,12.06
2022-09-30T09:52:51.522Z,12.06
2022-09-30T09:53:58.410Z,12.07
2022-09-30T09:55:03.320Z,12.05
2022-09-30T09:56:18.779Z,12.05
2022-09-30T09:57:25.033Z,12.02
2022-09-30T09:58:31.498Z,12.02
2022-09-30T09:59:34.593Z,12.02
2022-09-30T10:00:47.024Z,12.00
2022-09-30T10:01:52.114Z,12.04
2022-09-30T10:03:01.788Z,12.06
2022-09-30T10:04:24.677Z,12.07
2022-09-30T10:05:30.382Z,12.09
2022-09-30T10:06:46.611Z,12.06
2022-09-30T10:07:49.963Z,12.02
2022-09-30T10:08:54.489Z,12.01
2022-09-30T10:10:09.402Z,11.97
2022-09-30T10:11:21.242Z,11.91
2022-09-30T10:12:28.689Z,11.88
2022-09-30T10:13:43.560Z,11.86
2022-09-30T10:14:58.499Z,11.88
2022-09-30T10:16:03.800Z,11.87
2022-09-30T10:17:18.695Z,11.87
2022-09-30T10:18:27.566Z,11.88
2022-09-30T10:19:33.015Z,11.88
2022-09-30T10:20:37.215Z,11.86
2022-09-30T10:21:41.100Z,11.85
2022-09-30T10:22:44.196Z,11.87
2022-09-30T10:23:47.753Z,11.85
2022-09-30T10:24:51.905Z,11.85
2022-09-30T10:25:58.537Z,11.85
2022-09-30T10:27:02.283Z,11.84
2022-09-30T10:28:22.562Z,11.83
2022-09-30T10:29:32.060Z,11.84
2022-09-30T10:30:46.955Z,11.81
2022-09-30T10:31:54.972Z,11.82
2022-09-30T10:33:04.642Z,11.84
2022-09-30T10:34:10.697Z,11.85
2022-09-30T10:35:22.125Z,11.82
2022-09-30T10:36:31.400Z,11.81
2022-09-30T10:37:34.513Z,11.80
2022-09-30T10:38:45.462Z,11.78
2022-09-30T10:39:57.855Z,11.77
2022-09-30T10:41:02.974Z,11.76
2022-09-30T10:42:08.945Z,11.74
2022-09-30T10:43:21.678Z,11.73
2022-09-30T10:44:25.185Z,11.73
2022-09-30T10:45:39.266Z,11.72
2022-09-30T10:46:45.118Z,11.71
2022-09-30T10:47:51.206Z,11.72
2022-09-30T10:48:56.772Z,11.73
2022-09-30T10:50:13.723Z,11.74
2022-09-30T10:51:23.647Z,11.76
2022-09-30T10:52:29.174Z,11.75
2022-09-30T10:53:34.754Z,11.74
2022-09-30T10:54:49.638Z,11.75
2022-09-30T10:55:56.393Z,11.76
2022-09-30T10:57:04.035Z,11.77
2022-09-30T10:58:25.624Z,11.79
2022-09-30T10:59:34.109Z,11.80
2022-09-30T11:00:38.398Z,11.81
2022-09-30T11:01:53.685Z,11.83
2022-09-30T11:03:15.248Z,11.86
2022-09-30T11:04:32.002Z,11.89
2022-09-30T11:05:38.443Z,11.94
2022-09-30T11:06:44.039Z,11.98
2022-09-30T11:07:50.221Z,11.98
2022-09-30T11:09:04.146Z,12.09
2022-09-30T11:10:14.769Z,12.15
2022-09-30T11:11:24.459Z,12.21
2022-09-30T11:12:50.953Z,12.29
2022-09-30T11:13:57.548Z,12.40
2022-09-30T11:15:06.653Z,12.48
2022-09-30T11:16:09.821Z,12.57
2022-09-30T11:17:22.523Z,12.62
2022-09-30T11:18:38.053Z,12.68
2022-09-30T11:20:00.317Z,12.74
2022-09-30T11:21:10.933Z,12.81
2022-09-30T11:22:16.831Z,12.86
2022-09-30T11:23:33.788Z,12.93
2022-09-30T11:24:41.978Z,12.95
2022-09-30T11:25:58.656Z,13.04
2022-09-30T11:27:20.768Z,13.13
2022-09-30T11:28:32.078Z,13.19
2022-09-30T11:29:51.355Z,13.26
2022-09-30T11:31:07.011Z,13.30
2022-09-30T11:32:10.458Z,13.37
2022-09-30T11:33:22.251Z,13.45
2022-09-30T11:34:28.499Z,13.54
2022-09-30T11:35:31.633Z,13.65
2022-09-30T11:36:42.165Z,13.75
2022-09-30T11:37:46.015Z,13.85
2022-09-30T11:38:49.290Z,13.81
2022-09-30T11:39:58.695Z,13.80
2022-09-30T11:41:01.738Z,13.79
2022-09-30T11:42:10.766Z,13.75
2022-09-30T11:43:13.807Z,13.72
2022-09-30T11:44:29.089Z,13.72
2022-09-30T11:45:38.162Z,13.69
2022-09-30T11:47:01.655Z,13.65
2022-09-30T11:48:23.246Z,13.60
2022-09-30T11:49:35.729Z,13.58
2022-09-30T11:50:51.131Z,13.49
2022-09-30T11:52:02.499Z,13.44
2022-09-30T11:53:19.941Z,13.39
2022-09-30T11:54:25.952Z,13.40
2022-09-30T11:55:41.248Z,13.48
2022-09-30T11:56:53.679Z,13.44
2022-09-30T11:57:56.797Z,13.43
2022-09-30T11:59:01.483Z,13.46
2022-09-30T12:00:15.989Z,13.46
2022-09-30T12:01:22.794Z,13.43
2022-09-30T12:02:26.877Z,13.46
2022-09-30T12:03:34.141Z,13.54
2022-09-30T12:04:43.953Z,13.64
2022-09-30T12:05:54.279Z,13.66
2022-09-30T12:07:06.495Z,13.68
2022-09-30T12:08:12.941Z,13.66
2022-09-30T12:09:22.838Z,13.60
2022-09-30T12:10:29.274Z,13.60
2022-09-30T12:11:34.784Z,13.59
2022-09-30T12:12:41.774Z,13.63
2022-09-30T12:13:57.724Z,13.71
2022-09-30T12:15:03.124Z,13.62
2022-09-30T12:16:16.665Z,13.54
2022-09-30T12:17:26.980Z,13.49
2022-09-30T12:18:33.447Z,13.51
2022-09-30T12:19:38.461Z,13.49
2022-09-30T12:20:49.999Z,13.48
2022-09-30T12:21:56.444Z,13.56
2022-09-30T12:23:11.451Z,13.55
2022-09-30T12:24:35.998Z,13.55
2022-09-30T12:25:46.330Z,13.55
2022-09-30T12:26:49.739Z,13.53
2022-09-30T12:27:57.832Z,13.57
2022-09-30T12:29:23.518Z,13.57
2022-09-30T12:30:29.010Z,13.57
2022-09-30T12:31:34.652Z,13.58
2022-09-30T12:32:50.070Z,13.58
2022-09-30T12:34:09.405Z,13.54
2022-09-30T12:35:24.698Z,13.60
2022-09-30T12:36:27.866Z,13.59
2022-09-30T12:37:46.477Z,13.61
2022-09-30T12:39:22.354Z,13.60
2022-09-30T12:40:25.478Z,13.59
2022-09-30T12:41:55.376Z,13.59
2022-09-30T12:43:07.363Z,13.59
2022-09-30T12:44:28.885Z,13.52
2022-09-30T12:45:32.053Z,13.47
2022-09-30T12:47:13.698Z,13.44
2022-09-30T12:48:18.505Z,13.39
2022-09-30T12:49:23.759Z,13.32
2022-09-30T12:50:29.247Z,13.26
2022-09-30T12:51:33.670Z,13.20
2022-09-30T12:52:38.454Z,13.17
2022-09-30T12:53:41.597Z,13.12
2022-09-30T12:54:51.779Z,13.10
2022-09-30T12:55:55.476Z,13.10
2022-09-30T12:57:01.346Z,13.07
2022-09-30T12:58:05.321Z,13.03
2022-09-30T12:59:10.050Z,13.01
2022-09-30T13:00:13.467Z,12.99
2022-09-30T13:01:19.504Z,12.99
2022-09-30T13:02:34.447Z,12.97
2022-09-30T13:03:50.056Z,12.97
2022-09-30T13:04:53.302Z,12.96
2022-09-30T13:06:02.050Z,12.95
2022-09-30T13:07:23.731Z,12.94
2022-09-30T13:08:48.173Z,12.95
2022-09-30T13:10:02.196Z,12.98
2022-09-30T13:11:06.818Z,12.99
2022-09-30T13:12:17.334Z,13.00
2022-09-30T13:13:24.009Z,13.00
2022-09-30T13:14:43.544Z,12.99
2022-09-30T13:15:46.815Z,12.98
2022-09-30T13:17:11.015Z,12.98
2022-09-30T13:18:20.097Z,13.03
2022-09-30T13:19:31.032Z,13.05
2022-09-30T13:20:51.058Z,13.10
2022-09-30T13:22:14.034Z,13.08
2022-09-30T13:23:36.197Z,13.07
2022-09-30T13:24:58.017Z,13.14
2022-09-30T13:26:02.241Z,13.26
2022-09-30T13:27:09.776Z,13.35
2022-09-30T13:28:13.934Z,13.41
2022-09-30T13:29:17.079Z,13.48
2022-09-30T13:30:34.395Z,13.56
2022-09-30T13:31:49.797Z,13.68
2022-09-30T13:32:57.768Z,13.79
2022-09-30T13:34:04.048Z,13.88
2022-09-30T13:35:25.891Z,13.97
2022-09-30T13:36:38.769Z,14.00
2022-09-30T13:37:41.842Z,13.99
2022-09-30T13:38:45.050Z,13.99
2022-09-30T13:39:50.185Z,14.02
2022-09-30T13:41:03.026Z,14.06
2022-09-30T13:42:06.656Z,14.12
2022-09-30T13:43:13.910Z,14.18
2022-09-30T13:44:20.134Z,14.23
2022-09-30T13:45:32.072Z,14.28
2022-09-30T13:46:40.033Z,14.33
2022-09-30T13:47:51.998Z,14.32
2022-09-30T13:48:59.437Z,14.29
2022-09-30T13:50:05.441Z,14.25
2022-09-30T13:51:12.720Z,14.21
2022-09-30T13:52:22.458Z,14.18
2022-09-30T13:53:38.154Z,14.18
2022-09-30T13:54:46.253Z,14.15
2022-09-30T13:55:53.937Z,14.15
2022-09-30T13:56:57.133Z,14.13
2022-09-30T13:58:00.766Z,14.11
2022-09-30T13:59:10.061Z,14.07
2022-09-30T14:00:16.004Z,14.07
2022-09-30T14:01:19.536Z,14.08
2022-09-30T14:02:33.555Z,14.05
2022-09-30T14:03:45.609Z,14.04
2022-09-30T14:05:01.263Z,14.04
2022-09-30T14:06:04.359Z,13.99
2022-09-30T14:07:21.188Z,13.96
2022-09-30T14:08:37.560Z,13.92
2022-09-30T14:09:59.458Z,13.89
2022-09-30T14:11:02.450Z,13.88
2022-09-30T14:12:14.638Z,13.85
2022-09-30T14:13:36.395Z,13.85
2022-09-30T14:14:57.774Z,13.83
2022-09-30T14:16:19.480Z,13.79
2022-09-30T14:17:32.544Z,13.76
2022-09-30T14:18:44.545Z,13.74
2022-09-30T14:19:50.705Z,13.70
2022-09-30T14:21:09.572Z,13.67
2022-09-30T14:22:14.729Z,13.64
2022-09-30T14:23:18.951Z,13.60
2022-09-30T14:24:35.145Z,13.60
2022-09-30T14:25:45.546Z,13.62
2022-09-30T14:26:48.831Z,13.60
2022-09-30T14:27:58.196Z,13.61
2022-09-30T14:29:07.309Z,13.63
2022-09-30T14:30:15.329Z,13.65
2022-09-30T14:31:19.449Z,13.65
2022-09-30T14:32:30.437Z,13.64
2022-09-30T14:33:34.749Z,13.67
2022-09-30T14:34:37.933Z,13.67
2022-09-30T14:37:46.224Z,13.66
2022-09-30T14:38:52.778Z,13.65
2022-09-30T14:39:59.707Z,13.66
2022-09-30T14:41:08.681Z,13.66
2022-09-30T14:42:19.658Z,13.68
2022-09-30T14:43:38.985Z,13.71
2022-09-30T14:44:45.024Z,13.74
2022-09-30T14:45:52.104Z,13.78
2022-09-30T14:47:01.438Z,13.77
2022-09-30T14:48:31.901Z,13.76
2022-09-30T14:49:36.240Z,13.71
2022-09-30T14:53:27.014Z,13.71
2022-09-30T14:54:31.083Z,13.70
2022-09-30T14:55:35.026Z,13.68